sensor_id;sensor_type;location;lat;lon;timestamp;pressure;altitude;pressure_sealevel;temperature;humidity
48810;BME280;40070;47.322;18.784;2024-03-23T00:52:56;999.96;;;8.22;65.28
48810;BME280;40070;47.322;18.784;2024-03-23T00:54:58;999.91;;;8.26;65.15
48810;BME280;40070;47.322;18.784;2024-03-23T00:57:01;999.91;;;8.29;65.09
48810;BME280;40070;47.322;18.784;2024-03-23T00:59:03;999.86;;;8.24;65.59
48810;BME280;40070;47.322;18.784;2024-03-23T01:01:06;999.85;;;8.41;64.90
48810;BME280;40070;47.322;18.784;2024-03-23T01:03:08;999.83;;;8.39;64.65
48810;BME280;40070;47.322;18.784;2024-03-23T01:05:11;999.76;;;8.37;64.42
48810;BME280;40070;47.322;18.784;2024-03-23T01:07:13;999.69;;;8.17;64.67
48810;BME280;40070;47.322;18.784;2024-03-23T01:09:15;999.71;;;8.21;64.94
48810;BME280;40070;47.322;18.784;2024-03-23T01:11:18;999.64;;;8.18;64.88
48810;BME280;40070;47.322;18.784;2024-03-23T01:13:20;999.65;;;8.28;64.77
48810;BME280;40070;47.322;18.784;2024-03-23T01:15:23;999.62;;;8.24;65.19
48810;BME280;40070;47.322;18.784;2024-03-23T01:17:25;999.64;;;8.16;65.30
48810;BME280;40070;47.322;18.784;2024-03-23T01:19:28;999.64;;;8.08;65.43
48810;BME280;40070;47.322;18.784;2024-03-23T01:21:30;999.62;;;8.07;65.43
48810;BME280;40070;47.322;18.784;2024-03-23T01:23:33;999.59;;;8.10;65.59
48810;BME280;40070;47.322;18.784;2024-03-23T01:25:35;999.57;;;8.30;65.06
48810;BME280;40070;47.322;18.784;2024-03-23T01:27:37;999.56;;;8.03;65.52
48810;BME280;40070;47.322;18.784;2024-03-23T01:29:40;999.54;;;7.94;65.68
48810;BME280;40070;47.322;18.784;2024-03-23T01:31:42;999.52;;;7.85;65.80
48810;BME280;40070;47.322;18.784;2024-03-23T01:33:45;999.47;;;7.95;65.82
48810;BME280;40070;47.322;18.784;2024-03-23T01:35:47;999.48;;;7.96;65.61
48810;BME280;40070;47.322;18.784;2024-03-23T01:37:50;999.49;;;8.02;65.66
48810;BME280;40070;47.322;18.784;2024-03-23T01:39:52;999.50;;;8.04;65.64
48810;BME280;40070;47.322;18.784;2024-03-23T01:41:55;999.49;;;8.05;65.49
48810;BME280;40070;47.322;18.784;2024-03-23T01:43:57;999.50;;;7.82;66.16
48810;BME280;40070;47.322;18.784;2024-03-23T01:46:00;999.47;;;7.87;65.97
48810;BME280;40070;47.322;18.784;2024-03-23T01:48:03;999.50;;;7.69;66.22
48810;BME280;40070;47.322;18.784;2024-03-23T01:50:05;999.45;;;7.70;66.20
48810;BME280;40070;47.322;18.784;2024-03-23T01:52:08;999.43;;;7.84;65.66
48810;BME280;40070;47.322;18.784;2024-03-23T01:54:11;999.42;;;8.02;64.81
48810;BME280;40070;47.322;18.784;2024-03-23T01:56:13;999.37;;;7.69;65.48
48810;BME280;40070;47.322;18.784;2024-03-23T01:58:16;999.31;;;7.55;65.93
48810;BME280;40070;47.322;18.784;2024-03-23T02:00:18;999.30;;;7.56;65.55
48810;BME280;40070;47.322;18.784;2024-03-23T02:02:21;999.28;;;7.40;66.10
48810;BME280;40070;47.322;18.784;2024-03-23T02:04:23;999.27;;;7.56;65.41
48810;BME280;40070;47.322;18.784;2024-03-23T02:06:26;999.28;;;7.57;65.23
48810;BME280;40070;47.322;18.784;2024-03-23T02:08:28;999.27;;;7.59;65.04
48810;BME280;40070;47.322;18.784;2024-03-23T02:10:32;999.22;;;7.55;65.26
48810;BME280;40070;47.322;18.784;2024-03-23T02:12:35;999.25;;;7.62;65.23
48810;BME280;40070;47.322;18.784;2024-03-23T02:14:37;999.23;;;7.61;64.95
48810;BME280;40070;47.322;18.784;2024-03-23T02:16:40;999.19;;;7.42;65.54
48810;BME280;40070;47.322;18.784;2024-03-23T02:18:42;999.18;;;7.37;65.77
48810;BME280;40070;47.322;18.784;2024-03-23T02:20:45;999.21;;;7.46;65.67
48810;BME280;40070;47.322;18.784;2024-03-23T02:22:51;999.12;;;7.37;65.96
48810;BME280;40070;47.322;18.784;2024-03-23T02:24:53;999.14;;;7.34;65.90
48810;BME280;40070;47.322;18.784;2024-03-23T02:26:56;999.14;;;7.27;66.29
48810;BME280;40070;47.322;18.784;2024-03-23T02:28:58;999.10;;;7.28;66.43
48810;BME280;40070;47.322;18.784;2024-03-23T02:31:01;999.05;;;7.23;66.64
48810;BME280;40070;47.322;18.784;2024-03-23T02:33:03;999.00;;;7.30;66.29
48810;BME280;40070;47.322;18.784;2024-03-23T02:35:06;998.96;;;7.46;65.61
48810;BME280;40070;47.322;18.784;2024-03-23T02:37:11;998.97;;;7.40;65.92
48810;BME280;40070;47.322;18.784;2024-03-23T02:39:14;998.94;;;7.31;66.09
48810;BME280;40070;47.322;18.784;2024-03-23T02:41:16;998.93;;;7.29;66.17
48810;BME280;40070;47.322;18.784;2024-03-23T02:43:19;998.89;;;7.21;66.54
48810;BME280;40070;47.322;18.784;2024-03-23T02:45:21;998.87;;;7.06;66.89
48810;BME280;40070;47.322;18.784;2024-03-23T02:47:24;998.87;;;7.09;67.03
48810;BME280;40070;47.322;18.784;2024-03-23T02:49:26;998.86;;;7.22;66.57
48810;BME280;40070;47.322;18.784;2024-03-23T02:51:29;998.83;;;7.13;67.15
48810;BME280;40070;47.322;18.784;2024-03-23T02:53:31;998.80;;;7.10;67.04
48810;BME280;40070;47.322;18.784;2024-03-23T02:55:34;998.77;;;7.05;67.27
48810;BME280;40070;47.322;18.784;2024-03-23T02:57:36;998.77;;;7.13;67.11
48810;BME280;40070;47.322;18.784;2024-03-23T02:59:39;998.78;;;7.18;67.09
48810;BME280;40070;47.322;18.784;2024-03-23T03:01:41;998.79;;;7.26;67.27
48810;BME280;40070;47.322;18.784;2024-03-23T03:03:44;998.79;;;7.29;67.34
48810;BME280;40070;47.322;18.784;2024-03-23T03:05:46;998.77;;;7.07;68.16
48810;BME280;40070;47.322;18.784;2024-03-23T03:07:48;998.79;;;6.80;69.03
48810;BME280;40070;47.322;18.784;2024-03-23T03:09:51;998.80;;;7.09;68.08
48810;BME280;40070;47.322;18.784;2024-03-23T03:11:53;998.77;;;7.05;67.68
48810;BME280;40070;47.322;18.784;2024-03-23T03:13:56;998.77;;;6.92;67.56
48810;BME280;40070;47.322;18.784;2024-03-23T03:15:58;998.77;;;6.96;67.23
48810;BME280;40070;47.322;18.784;2024-03-23T03:18:01;998.73;;;6.90;67.12
48810;BME280;40070;47.322;18.784;2024-03-23T03:20:04;998.73;;;6.92;66.99
48810;BME280;40070;47.322;18.784;2024-03-23T03:22:06;998.68;;;6.86;67.26
48810;BME280;40070;47.322;18.784;2024-03-23T03:24:09;998.73;;;6.92;67.44
48810;BME280;40070;47.322;18.784;2024-03-23T03:26:11;998.65;;;7.10;67.10
48810;BME280;40070;47.322;18.784;2024-03-23T03:28:14;998.63;;;7.02;67.04
48810;BME280;40070;47.322;18.784;2024-03-23T03:30:16;998.65;;;7.07;67.08
48810;BME280;40070;47.322;18.784;2024-03-23T03:32:19;998.61;;;7.20;66.45
48810;BME280;40070;47.322;18.784;2024-03-23T03:34:21;998.61;;;7.02;67.01
48810;BME280;40070;47.322;18.784;2024-03-23T03:36:24;998.60;;;6.97;66.91
48810;BME280;40070;47.322;18.784;2024-03-23T03:38:26;998.53;;;7.01;66.73
48810;BME280;40070;47.322;18.784;2024-03-23T03:40:28;998.50;;;6.87;67.14
48810;BME280;40070;47.322;18.784;2024-03-23T03:42:31;998.46;;;6.98;67.06
48810;BME280;40070;47.322;18.784;2024-03-23T03:44:33;998.45;;;7.01;67.11
48810;BME280;40070;47.322;18.784;2024-03-23T03:46:36;998.45;;;6.96;67.49
48810;BME280;40070;47.322;18.784;2024-03-23T03:48:38;998.45;;;7.09;67.56
48810;BME280;40070;47.322;18.784;2024-03-23T03:50:41;998.45;;;7.14;67.42
48810;BME280;40070;47.322;18.784;2024-03-23T03:52:43;998.47;;;7.33;66.92
48810;BME280;40070;47.322;18.784;2024-03-23T03:54:46;998.39;;;7.33;67.26
48810;BME280;40070;47.322;18.784;2024-03-23T03:56:48;998.40;;;7.40;67.21
48810;BME280;40070;47.322;18.784;2024-03-23T03:58:51;998.39;;;7.31;67.53
48810;BME280;40070;47.322;18.784;2024-03-23T04:00:53;998.34;;;7.34;67.53
48810;BME280;40070;47.322;18.784;2024-03-23T04:02:56;998.32;;;7.47;67.00
48810;BME280;40070;47.322;18.784;2024-03-23T04:04:58;998.27;;;7.44;67.02
48810;BME280;40070;47.322;18.784;2024-03-23T04:07:02;998.27;;;7.41;67.29
48810;BME280;40070;47.322;18.784;2024-03-23T04:09:04;998.24;;;7.39;67.13
48810;BME280;40070;47.322;18.784;2024-03-23T04:11:07;998.22;;;7.16;68.07
48810;BME280;40070;47.322;18.784;2024-03-23T04:13:09;998.25;;;7.11;68.18
48810;BME280;40070;47.322;18.784;2024-03-23T04:15:12;998.23;;;7.15;68.09
48810;BME280;40070;47.322;18.784;2024-03-23T04:17:14;998.22;;;7.22;67.64
48810;BME280;40070;47.322;18.784;2024-03-23T04:19:17;998.18;;;7.24;67.50
48810;BME280;40070;47.322;18.784;2024-03-23T04:21:19;998.18;;;7.14;67.86
48810;BME280;40070;47.322;18.784;2024-03-23T04:23:22;998.25;;;7.01;68.41
48810;BME280;40070;47.322;18.784;2024-03-23T04:25:24;998.24;;;7.19;67.45
48810;BME280;40070;47.322;18.784;2024-03-23T04:27:27;998.21;;;7.29;66.79
48810;BME280;40070;47.322;18.784;2024-03-23T04:29:29;998.23;;;7.32;66.46
48810;BME280;40070;47.322;18.784;2024-03-23T04:31:32;998.23;;;7.37;66.21
48810;BME280;40070;47.322;18.784;2024-03-23T04:33:34;998.26;;;7.27;66.35
48810;BME280;40070;47.322;18.784;2024-03-23T04:35:36;998.29;;;7.39;65.93
48810;BME280;40070;47.322;18.784;2024-03-23T04:37:42;998.32;;;7.15;66.27
48810;BME280;40070;47.322;18.784;2024-03-23T04:39:44;998.30;;;7.24;66.64
48810;BME280;40070;47.322;18.784;2024-03-23T04:41:46;998.24;;;7.15;66.85
48810;BME280;40070;47.322;18.784;2024-03-23T04:43:49;998.18;;;6.94;67.70
48810;BME280;40070;47.322;18.784;2024-03-23T04:45:51;998.18;;;7.10;67.41
48810;BME280;40070;47.322;18.784;2024-03-23T04:47:54;998.16;;;7.11;67.29
48810;BME280;40070;47.322;18.784;2024-03-23T04:49:56;998.18;;;7.16;67.31
48810;BME280;40070;47.322;18.784;2024-03-23T04:51:59;998.15;;;6.96;68.06
48810;BME280;40070;47.322;18.784;2024-03-23T04:54:01;998.17;;;6.97;68.30
48810;BME280;40070;47.322;18.784;2024-03-23T04:56:04;998.18;;;6.94;68.81
48810;BME280;40070;47.322;18.784;2024-03-23T04:58:06;998.18;;;7.02;68.31
48810;BME280;40070;47.322;18.784;2024-03-23T05:00:09;998.18;;;7.15;68.01
48810;BME280;40070;47.322;18.784;2024-03-23T05:02:12;998.15;;;7.13;68.45
48810;BME280;40070;47.322;18.784;2024-03-23T05:04:14;998.14;;;7.06;68.95
48810;BME280;40070;47.322;18.784;2024-03-23T05:06:17;998.20;;;7.03;69.14
48810;BME280;40070;47.322;18.784;2024-03-23T05:08:19;998.15;;;7.06;69.63
48810;BME280;40070;47.322;18.784;2024-03-23T05:10:22;998.14;;;7.12;69.55
48810;BME280;40070;47.322;18.784;2024-03-23T05:12:24;998.14;;;7.26;69.56
48810;BME280;40070;47.322;18.784;2024-03-23T05:14:27;998.12;;;7.55;69.17
48810;BME280;40070;47.322;18.784;2024-03-23T05:16:29;998.12;;;7.62;69.33
48810;BME280;40070;47.322;18.784;2024-03-23T05:18:31;998.10;;;7.70;69.66
48810;BME280;40070;47.322;18.784;2024-03-23T05:20:34;998.06;;;7.72;69.48
48810;BME280;40070;47.322;18.784;2024-03-23T05:22:36;998.06;;;7.88;69.27
48810;BME280;40070;47.322;18.784;2024-03-23T05:24:39;998.05;;;7.93;68.31
48810;BME280;40070;47.322;18.784;2024-03-23T05:26:41;998.06;;;7.84;69.30
48810;BME280;40070;47.322;18.784;2024-03-23T05:28:44;998.01;;;7.95;69.13
48810;BME280;40070;47.322;18.784;2024-03-23T05:30:50;998.04;;;8.10;68.80
48810;BME280;40070;47.322;18.784;2024-03-23T05:32:52;997.99;;;7.85;68.20
48810;BME280;40070;47.322;18.784;2024-03-23T05:34:55;998.05;;;7.57;69.00
48810;BME280;40070;47.322;18.784;2024-03-23T05:36:57;998.05;;;7.61;69.03
48810;BME280;40070;47.322;18.784;2024-03-23T05:38:59;998.10;;;7.71;68.70
48810;BME280;40070;47.322;18.784;2024-03-23T05:41:02;998.05;;;7.73;68.64
48810;BME280;40070;47.322;18.784;2024-03-23T05:43:05;998.03;;;7.87;68.38
48810;BME280;40070;47.322;18.784;2024-03-23T05:45:07;998.01;;;7.96;68.60
48810;BME280;40070;47.322;18.784;2024-03-23T05:47:10;998.01;;;7.98;68.93
48810;BME280;40070;47.322;18.784;2024-03-23T05:49:12;997.95;;;8.09;68.98
48810;BME280;40070;47.322;18.784;2024-03-23T05:51:15;997.97;;;8.22;68.71
48810;BME280;40070;47.322;18.784;2024-03-23T05:53:17;997.97;;;8.18;68.65
48810;BME280;40070;47.322;18.784;2024-03-23T05:55:20;997.98;;;8.09;68.90
48810;BME280;40070;47.322;18.784;2024-03-23T05:57:22;997.93;;;8.28;68.55
48810;BME280;40070;47.322;18.784;2024-03-23T05:59:25;997.84;;;8.40;68.12
48810;BME280;40070;47.322;18.784;2024-03-23T06:01:27;997.83;;;8.52;68.04
48810;BME280;40070;47.322;18.784;2024-03-23T06:03:30;997.86;;;8.68;67.85
48810;BME280;40070;47.322;18.784;2024-03-23T06:05:32;997.85;;;8.80;67.60
48810;BME280;40070;47.322;18.784;2024-03-23T06:07:35;997.86;;;9.08;66.90
48810;BME280;40070;47.322;18.784;2024-03-23T06:09:37;997.79;;;9.32;66.57
48810;BME280;40070;47.322;18.784;2024-03-23T06:11:40;997.75;;;9.52;66.23
48810;BME280;40070;47.322;18.784;2024-03-23T06:13:42;997.72;;;9.63;66.05
48810;BME280;40070;47.322;18.784;2024-03-23T06:15:45;997.60;;;9.86;65.56
48810;BME280;40070;47.322;18.784;2024-03-23T06:17:47;997.61;;;10.00;65.51
48810;BME280;40070;47.322;18.784;2024-03-23T06:19:50;997.59;;;10.09;65.46
48810;BME280;40070;47.322;18.784;2024-03-23T06:21:53;997.55;;;10.22;65.57
48810;BME280;40070;47.322;18.784;2024-03-23T06:23:55;997.54;;;10.27;65.85
48810;BME280;40070;47.322;18.784;2024-03-23T06:25:58;997.50;;;10.28;66.14
48810;BME280;40070;47.322;18.784;2024-03-23T06:28:00;997.49;;;10.25;66.29
48810;BME280;40070;47.322;18.784;2024-03-23T06:30:03;997.45;;;10.34;66.23
48810;BME280;40070;47.322;18.784;2024-03-23T06:32:06;997.42;;;10.31;66.60
48810;BME280;40070;47.322;18.784;2024-03-23T06:34:08;997.37;;;10.53;66.38
48810;BME280;40070;47.322;18.784;2024-03-23T06:36:11;997.29;;;10.63;66.62
48810;BME280;40070;47.322;18.784;2024-03-23T06:38:14;997.27;;;10.71;65.91
48810;BME280;40070;47.322;18.784;2024-03-23T06:40:16;997.28;;;10.89;65.83
48810;BME280;40070;47.322;18.784;2024-03-23T06:42:19;997.32;;;10.89;65.50
48810;BME280;40070;47.322;18.784;2024-03-23T06:44:21;997.34;;;11.18;64.88
48810;BME280;40070;47.322;18.784;2024-03-23T06:46:24;997.35;;;11.11;65.71
48810;BME280;40070;47.322;18.784;2024-03-23T06:48:26;997.30;;;11.24;65.10
48810;BME280;40070;47.322;18.784;2024-03-23T06:50:28;997.31;;;11.49;64.58
48810;BME280;40070;47.322;18.784;2024-03-23T06:52:31;997.32;;;11.52;64.64
48810;BME280;40070;47.322;18.784;2024-03-23T06:54:33;997.32;;;11.58;64.78
48810;BME280;40070;47.322;18.784;2024-03-23T06:56:36;997.27;;;11.73;64.58
48810;BME280;40070;47.322;18.784;2024-03-23T06:58:38;997.31;;;11.73;64.80
48810;BME280;40070;47.322;18.784;2024-03-23T07:00:41;997.28;;;11.82;64.63
48810;BME280;40070;47.322;18.784;2024-03-23T07:02:43;997.28;;;11.91;64.62
48810;BME280;40070;47.322;18.784;2024-03-23T07:04:46;997.22;;;12.04;64.89
48810;BME280;40070;47.322;18.784;2024-03-23T07:06:48;997.20;;;12.20;65.15
48810;BME280;40070;47.322;18.784;2024-03-23T07:08:52;997.19;;;12.27;64.55
48810;BME280;40070;47.322;18.784;2024-03-23T07:10:54;997.18;;;12.29;64.96
48810;BME280;40070;47.322;18.784;2024-03-23T07:12:57;997.17;;;12.18;66.16
48810;BME280;40070;47.322;18.784;2024-03-23T07:14:59;997.18;;;12.32;65.29
48810;BME280;40070;47.322;18.784;2024-03-23T07:17:02;997.22;;;12.56;64.41
48810;BME280;40070;47.322;18.784;2024-03-23T07:19:04;997.18;;;12.74;64.08
48810;BME280;40070;47.322;18.784;2024-03-23T07:21:07;997.16;;;12.99;63.21
48810;BME280;40070;47.322;18.784;2024-03-23T07:23:09;997.15;;;13.09;62.77
48810;BME280;40070;47.322;18.784;2024-03-23T07:25:11;997.11;;;12.99;63.66
48810;BME280;40070;47.322;18.784;2024-03-23T07:27:14;997.08;;;13.00;63.46
48810;BME280;40070;47.322;18.784;2024-03-23T07:29:16;997.05;;;13.19;63.21
48810;BME280;40070;47.322;18.784;2024-03-23T07:31:19;996.97;;;13.25;63.20
48810;BME280;40070;47.322;18.784;2024-03-23T07:33:21;996.90;;;13.38;63.06
48810;BME280;40070;47.322;18.784;2024-03-23T07:35:24;996.84;;;13.60;62.39
48810;BME280;40070;47.322;18.784;2024-03-23T07:37:26;996.79;;;13.69;62.28
48810;BME280;40070;47.322;18.784;2024-03-23T07:39:29;996.79;;;13.67;61.44
48810;BME280;40070;47.322;18.784;2024-03-23T07:41:31;996.76;;;13.60;61.98
48810;BME280;40070;47.322;18.784;2024-03-23T07:43:34;996.66;;;13.79;61.71
48810;BME280;40070;47.322;18.784;2024-03-23T07:45:36;996.62;;;13.99;61.08
48810;BME280;40070;47.322;18.784;2024-03-23T07:47:39;996.57;;;14.05;60.68
48810;BME280;40070;47.322;18.784;2024-03-23T07:49:41;996.52;;;14.03;61.29
48810;BME280;40070;47.322;18.784;2024-03-23T07:51:44;996.61;;;14.14;61.30
48810;BME280;40070;47.322;18.784;2024-03-23T07:53:46;996.61;;;14.10;61.94
48810;BME280;40070;47.322;18.784;2024-03-23T07:55:52;996.63;;;14.30;61.02
48810;BME280;40070;47.322;18.784;2024-03-23T07:57:55;996.60;;;14.63;61.63
48810;BME280;40070;47.322;18.784;2024-03-23T07:59:57;996.57;;;14.88;60.10
48810;BME280;40070;47.322;18.784;2024-03-23T08:02:00;996.49;;;14.93;59.93
48810;BME280;40070;47.322;18.784;2024-03-23T08:04:02;996.51;;;14.98;59.53
48810;BME280;40070;47.322;18.784;2024-03-23T08:06:14;996.41;;;15.07;58.02
48810;BME280;40070;47.322;18.784;2024-03-23T08:08:17;996.44;;;15.15;58.32
48810;BME280;40070;47.322;18.784;2024-03-23T08:10:19;996.36;;;15.46;57.02
48810;BME280;40070;47.322;18.784;2024-03-23T08:12:22;996.34;;;15.85;58.36
48810;BME280;40070;47.322;18.784;2024-03-23T08:14:24;996.37;;;16.07;58.00
48810;BME280;40070;47.322;18.784;2024-03-23T08:16:27;996.36;;;16.33;55.42
48810;BME280;40070;47.322;18.784;2024-03-23T08:18:30;996.32;;;16.57;53.81
48810;BME280;40070;47.322;18.784;2024-03-23T08:20:32;996.38;;;16.85;53.12
48810;BME280;40070;47.322;18.784;2024-03-23T08:22:35;996.33;;;16.81;51.57
48810;BME280;40070;47.322;18.784;2024-03-23T08:24:37;996.29;;;16.77;51.78
48810;BME280;40070;47.322;18.784;2024-03-23T08:26:40;996.24;;;16.70;52.19
48810;BME280;40070;47.322;18.784;2024-03-23T08:28:42;996.30;;;16.78;51.73
48810;BME280;40070;47.322;18.784;2024-03-23T08:30:45;996.22;;;16.86;52.19
48810;BME280;40070;47.322;18.784;2024-03-23T08:32:47;996.07;;;16.96;52.70
48810;BME280;40070;47.322;18.784;2024-03-23T08:34:49;995.96;;;17.10;51.89
48810;BME280;40070;47.322;18.784;2024-03-23T08:36:52;996.01;;;17.14;50.72
48810;BME280;40070;47.322;18.784;2024-03-23T08:38:54;996.01;;;17.28;49.89
48810;BME280;40070;47.322;18.784;2024-03-23T08:41:03;996.00;;;17.37;49.17
48810;BME280;40070;47.322;18.784;2024-03-23T08:43:06;995.96;;;17.47;49.11
48810;BME280;40070;47.322;18.784;2024-03-23T08:45:08;995.95;;;17.77;48.76
48810;BME280;40070;47.322;18.784;2024-03-23T08:47:11;995.95;;;17.99;49.21
48810;BME280;40070;47.322;18.784;2024-03-23T08:49:13;995.94;;;18.14;48.42
48810;BME280;40070;47.322;18.784;2024-03-23T08:51:16;995.94;;;18.15;47.64
48810;BME280;40070;47.322;18.784;2024-03-23T08:53:19;995.83;;;18.08;47.89
48810;BME280;40070;47.322;18.784;2024-03-23T08:55:21;995.88;;;18.06;47.71
48810;BME280;40070;47.322;18.784;2024-03-23T08:57:24;995.77;;;17.68;47.88
48810;BME280;40070;47.322;18.784;2024-03-23T08:59:26;995.75;;;17.69;48.41
48810;BME280;40070;47.322;18.784;2024-03-23T09:01:28;995.79;;;17.70;48.41
48810;BME280;40070;47.322;18.784;2024-03-23T09:03:31;995.68;;;17.58;48.73
48810;BME280;40070;47.322;18.784;2024-03-23T09:05:38;995.65;;;17.57;48.64
48810;BME280;40070;47.322;18.784;2024-03-23T09:07:41;995.61;;;17.55;48.81
48810;BME280;40070;47.322;18.784;2024-03-23T09:09:43;995.54;;;17.88;48.34
48810;BME280;40070;47.322;18.784;2024-03-23T09:11:45;995.58;;;18.27;48.13
48810;BME280;40070;47.322;18.784;2024-03-23T09:13:48;995.57;;;18.54;47.52
48810;BME280;40070;47.322;18.784;2024-03-23T09:15:51;995.57;;;18.72;46.59
48810;BME280;40070;47.322;18.784;2024-03-23T09:17:54;995.52;;;18.90;46.38
48810;BME280;40070;47.322;18.784;2024-03-23T09:19:56;995.48;;;19.19;46.71
48810;BME280;40070;47.322;18.784;2024-03-23T09:21:59;995.42;;;19.46;46.95
48810;BME280;40070;47.322;18.784;2024-03-23T09:24:01;995.46;;;19.71;45.55
48810;BME280;40070;47.322;18.784;2024-03-23T09:26:04;995.36;;;19.45;44.64
48810;BME280;40070;47.322;18.784;2024-03-23T09:28:06;995.38;;;19.34;43.97
48810;BME280;40070;47.322;18.784;2024-03-23T09:30:09;995.41;;;19.01;44.27
48810;BME280;40070;47.322;18.784;2024-03-23T09:32:12;995.42;;;19.08;44.38
48810;BME280;40070;47.322;18.784;2024-03-23T09:34:14;995.31;;;19.08;44.59
48810;BME280;40070;47.322;18.784;2024-03-23T09:36:17;995.30;;;19.19;44.05
48810;BME280;40070;47.322;18.784;2024-03-23T09:38:19;995.24;;;19.41;44.48
48810;BME280;40070;47.322;18.784;2024-03-23T09:40:22;995.25;;;19.83;43.83
48810;BME280;40070;47.322;18.784;2024-03-23T09:42:24;995.23;;;19.83;44.09
48810;BME280;40070;47.322;18.784;2024-03-23T09:44:27;995.10;;;20.06;43.69
48810;BME280;40070;47.322;18.784;2024-03-23T09:46:29;995.12;;;20.34;43.30
48810;BME280;40070;47.322;18.784;2024-03-23T09:48:32;995.05;;;20.74;42.52
48810;BME280;40070;47.322;18.784;2024-03-23T09:50:36;994.99;;;20.79;42.00
48810;BME280;40070;47.322;18.784;2024-03-23T09:52:39;994.95;;;20.66;41.29
48810;BME280;40070;47.322;18.784;2024-03-23T09:54:41;994.84;;;20.92;41.04
48810;BME280;40070;47.322;18.784;2024-03-23T09:56:44;994.88;;;20.72;39.85
48810;BME280;40070;47.322;18.784;2024-03-23T09:58:46;994.78;;;20.59;40.02
48810;BME280;40070;47.322;18.784;2024-03-23T10:00:49;994.81;;;20.84;39.26
48810;BME280;40070;47.322;18.784;2024-03-23T10:02:51;994.73;;;21.04;39.87
48810;BME280;40070;47.322;18.784;2024-03-23T10:04:54;994.73;;;21.06;38.61
48810;BME280;40070;47.322;18.784;2024-03-23T10:06:56;994.66;;;20.90;38.92
48810;BME280;40070;47.322;18.784;2024-03-23T10:09:17;994.65;;;21.12;39.82
48810;BME280;40070;47.322;18.784;2024-03-23T10:11:20;994.58;;;21.18;38.62
48810;BME280;40070;47.322;18.784;2024-03-23T10:13:25;994.56;;;21.31;38.38
48810;BME280;40070;47.322;18.784;2024-03-23T10:15:28;994.65;;;20.71;38.58
48810;BME280;40070;47.322;18.784;2024-03-23T10:17:31;994.51;;;20.83;39.16
48810;BME280;40070;47.322;18.784;2024-03-23T10:19:33;994.56;;;20.96;39.37
48810;BME280;40070;47.322;18.784;2024-03-23T10:21:36;994.51;;;20.80;39.08
48810;BME280;40070;47.322;18.784;2024-03-23T10:23:38;994.50;;;21.02;38.92
48810;BME280;40070;47.322;18.784;2024-03-23T10:25:41;994.46;;;20.88;38.20
48810;BME280;40070;47.322;18.784;2024-03-23T10:27:44;994.45;;;21.23;38.46
48810;BME280;40070;47.322;18.784;2024-03-23T10:29:46;994.47;;;21.16;38.06
48810;BME280;40070;47.322;18.784;2024-03-23T10:31:49;994.44;;;20.87;37.84
48810;BME280;40070;47.322;18.784;2024-03-23T10:33:52;994.30;;;20.58;38.13
48810;BME280;40070;47.322;18.784;2024-03-23T10:35:54;994.28;;;20.78;38.73
48810;BME280;40070;47.322;18.784;2024-03-23T10:37:57;994.27;;;21.16;38.48
48810;BME280;40070;47.322;18.784;2024-03-23T10:39:59;994.26;;;21.21;38.72
48810;BME280;40070;47.322;18.784;2024-03-23T10:42:02;994.20;;;21.15;37.92
48810;BME280;40070;47.322;18.784;2024-03-23T10:44:05;994.19;;;21.06;38.09
48810;BME280;40070;47.322;18.784;2024-03-23T10:46:08;994.10;;;21.10;38.16
48810;BME280;40070;47.322;18.784;2024-03-23T10:48:10;994.08;;;21.12;37.63
48810;BME280;40070;47.322;18.784;2024-03-23T10:50:13;994.05;;;21.17;37.13
48810;BME280;40070;47.322;18.784;2024-03-23T10:52:15;993.98;;;21.47;36.45
48810;BME280;40070;47.322;18.784;2024-03-23T10:54:18;993.95;;;21.43;35.96
48810;BME280;40070;47.322;18.784;2024-03-23T10:56:21;993.99;;;21.63;35.87
48810;BME280;40070;47.322;18.784;2024-03-23T10:58:26;993.97;;;21.75;36.00
48810;BME280;40070;47.322;18.784;2024-03-23T11:00:29;993.90;;;21.88;35.23
48810;BME280;40070;47.322;18.784;2024-03-23T11:02:32;993.87;;;21.56;35.02
48810;BME280;40070;47.322;18.784;2024-03-23T11:04:37;993.81;;;21.66;35.48
48810;BME280;40070;47.322;18.784;2024-03-23T11:06:40;993.77;;;21.62;35.34
48810;BME280;40070;47.322;18.784;2024-03-23T11:08:42;993.80;;;21.52;35.90
48810;BME280;40070;47.322;18.784;2024-03-23T11:10:45;993.67;;;21.92;35.51
48810;BME280;40070;47.322;18.784;2024-03-23T11:12:47;993.61;;;22.41;35.72
48810;BME280;40070;47.322;18.784;2024-03-23T11:14:50;993.59;;;21.93;35.15
48810;BME280;40070;47.322;18.784;2024-03-23T11:17:08;993.62;;;21.92;34.70
48810;BME280;40070;47.322;18.784;2024-03-23T11:19:41;993.53;;;21.86;35.34
48810;BME280;40070;47.322;18.784;2024-03-23T11:21:53;993.49;;;22.09;35.09
48810;BME280;40070;47.322;18.784;2024-03-23T11:24:12;993.44;;;22.24;34.90
48810;BME280;40070;47.322;18.784;2024-03-23T11:26:10;993.41;;;22.26;34.58
48810;BME280;40070;47.322;18.784;2024-03-23T11:28:13;993.34;;;22.37;34.75
48810;BME280;40070;47.322;18.784;2024-03-23T11:30:19;993.35;;;22.33;34.99
48810;BME280;40070;47.322;18.784;2024-03-23T11:32:21;993.32;;;21.92;34.50
48810;BME280;40070;47.322;18.784;2024-03-23T11:34:24;993.21;;;21.73;35.28
48810;BME280;40070;47.322;18.784;2024-03-23T11:36:27;993.26;;;21.74;35.10
48810;BME280;40070;47.322;18.784;2024-03-23T11:38:29;993.19;;;22.09;34.50
48810;BME280;40070;47.322;18.784;2024-03-23T11:40:39;993.15;;;22.36;33.94
48810;BME280;40070;47.322;18.784;2024-03-23T11:42:41;993.10;;;22.32;33.65
48810;BME280;40070;47.322;18.784;2024-03-23T11:44:44;993.10;;;22.40;33.97
48810;BME280;40070;47.322;18.784;2024-03-23T11:46:46;992.99;;;22.18;33.58
48810;BME280;40070;47.322;18.784;2024-03-23T11:48:49;993.06;;;21.92;33.79
48810;BME280;40070;47.322;18.784;2024-03-23T11:50:56;992.94;;;21.71;34.21
48810;BME280;40070;47.322;18.784;2024-03-23T11:53:43;992.88;;;21.87;33.82
48810;BME280;40070;47.322;18.784;2024-03-23T11:55:13;992.99;;;21.70;33.94
48810;BME280;40070;47.322;18.784;2024-03-23T11:57:15;992.84;;;21.60;33.70